PWSweather.com
Personal Weather Stations
Station Observations
BREEJEDURP
'sGravenzande, WestlandNL

'sGravenzandeWestlandNL

Lat: 52.00095260000001, Lon: 4.174256600000035

Elevation: 3

Station Type: Davis Vantage Pro2 Plus

Latest ConditionsUpdated 8:09:00 PM GMT+01:01 Wednesday, Apr 24, 2019
Currently Today's Max Today's Min Today's Average
Temperature 54.1°F12.3°C 77.0°F25.0°C 54.1°F12.3°C 64.6°F18.1°C
Dew Point 51.9°F11.1°C 54.8°F12.7°C 49.2°F9.6°C 52.1°F11.2°C
Winds 2.0 mph SW3.2 kmh SW 13.0 mph -20.9 kmh - - 5.8 mph 9.3 kmh
Wind Gusts 3.0 mph4.8 kmh 19.0 mph30.6 kmh - -
Humidity 92% 92% 42% 66%
Pressure 29.55 in1000.7 mb 29.55 in1000.7 mb 29.39 in995.3 mb -
Precipitation - 0.16 in4.1 mm - -
Hour Temp Dew Point Humidity Winds Wind Gusts Pressure Precip Precip Rate Daily Precip Total
08:09 PM 54.1°F12.3°C 51.9°F11.1°C 92% 2.0 mph SW3.2 kmh SW 3.0 mph4.8 kmh 29.55 in1000.7 mb 0.00 in0.0 mm 0.00 in0.0 mm 0.16 in4.1 mm
08:04 PM 54.1°F12.3°C 51.9°F11.1°C 92% 1.0 mph WSW1.6 kmh WSW 2.0 mph3.2 kmh 29.55 in1000.7 mb 0.01 in0.3 mm 0.01 in0.3 mm 0.16 in4.1 mm
07:59 PM 54.5°F12.5°C 52.2°F11.2°C 92% 1.0 mph WNW1.6 kmh WNW 2.0 mph3.2 kmh 29.54 in1000.3 mb 0.00 in0.0 mm 0.00 in0.0 mm 0.14 in3.6 mm
06:09 PM 64.8°F18.2°C 53.1°F11.7°C 66% 8.0 mph SE12.9 kmh SE 13.0 mph20.9 kmh 29.48 in998.3 mb 0.00 in0.0 mm 0.00 in0.0 mm 0.03 in0.8 mm
06:04 PM 64.9°F18.3°C 52.9°F11.6°C 65% 7.0 mph S11.3 kmh S 11.0 mph17.7 kmh 29.48 in998.3 mb 0.00 in0.0 mm 0.00 in0.0 mm 0.03 in0.8 mm
05:59 PM 65.1°F18.4°C 53.9°F12.2°C 67% 7.0 mph SE11.3 kmh SE 9.0 mph14.5 kmh 29.47 in998.0 mb 0.00 in0.0 mm 0.00 in0.0 mm 0.03 in0.8 mm
04:09 PM 73.2°F22.9°C 51.2°F10.7°C 46% 8.0 mph SSE12.9 kmh SSE 16.0 mph25.7 kmh 29.44 in997.0 mb 0.00 in0.0 mm 0.00 in0.0 mm 0.00 in0.0 mm
04:04 PM 72.0°F22.2°C 51.2°F10.7°C 48% 7.0 mph S11.3 kmh S 10.0 mph16.1 kmh 29.44 in997.0 mb 0.00 in0.0 mm 0.00 in0.0 mm 0.00 in0.0 mm
03:59 PM 72.3°F22.4°C 50.9°F10.5°C 47% 13.0 mph SSW20.9 kmh SSW 18.0 mph29.0 kmh 29.44 in997.0 mb 0.00 in0.0 mm 0.00 in0.0 mm 0.00 in0.0 mm
02:09 PM 75.7°F24.3°C 51.6°F10.9°C 43% 12.0 mph SSE19.3 kmh SSE 18.0 mph29.0 kmh 29.44 in997.0 mb 0.00 in0.0 mm 0.00 in0.0 mm 0.00 in0.0 mm
02:04 PM 76.1°F24.5°C 51.3°F10.7°C 42% 9.0 mph SSE14.5 kmh SSE 12.0 mph19.3 kmh 29.44 in997.0 mb 0.00 in0.0 mm 0.00 in0.0 mm 0.00 in0.0 mm
01:59 PM 77.0°F25.0°C 52.1°F11.2°C 42% 13.0 mph S20.9 kmh S 19.0 mph30.6 kmh 29.44 in997.0 mb 0.00 in0.0 mm 0.00 in0.0 mm 0.00 in0.0 mm
12:09 PM 73.9°F23.3°C 53.6°F12.0°C 49% 9.0 mph ESE14.5 kmh ESE 12.0 mph19.3 kmh 29.43 in996.6 mb 0.00 in0.0 mm 0.00 in0.0 mm 0.00 in0.0 mm
12:04 PM 73.9°F23.3°C 53.6°F12.0°C 49% 11.0 mph SE17.7 kmh SE 14.0 mph22.5 kmh 29.44 in997.0 mb 0.00 in0.0 mm 0.00 in0.0 mm 0.00 in0.0 mm
11:59 AM 74.7°F23.7°C 54.8°F12.7°C 50% 8.0 mph SE12.9 kmh SE 11.0 mph17.7 kmh 29.43 in996.6 mb 0.00 in0.0 mm 0.00 in0.0 mm 0.00 in0.0 mm
10:09 AM 69.6°F20.9°C 53.7°F12.1°C 57% 10.0 mph SSE16.1 kmh SSE 13.0 mph20.9 kmh 29.43 in996.6 mb 0.00 in0.0 mm 0.00 in0.0 mm 0.00 in0.0 mm
10:04 AM 69.4°F20.8°C 54.0°F12.2°C 58% 9.0 mph SE14.5 kmh SE 12.0 mph19.3 kmh 29.43 in996.6 mb 0.00 in0.0 mm 0.00 in0.0 mm 0.00 in0.0 mm
09:59 AM 69.1°F20.6°C 54.1°F12.3°C 59% 9.0 mph SE14.5 kmh SE 13.0 mph20.9 kmh 29.43 in996.6 mb 0.00 in0.0 mm 0.00 in0.0 mm 0.00 in0.0 mm
08:09 AM 63.9°F17.7°C 53.9°F12.2°C 70% 3.0 mph SE4.8 kmh SE 6.0 mph9.7 kmh 29.41 in995.9 mb 0.00 in0.0 mm 0.00 in0.0 mm 0.00 in0.0 mm
08:04 AM 63.7°F17.6°C 53.7°F12.1°C 70% 6.0 mph ESE9.7 kmh ESE 8.0 mph12.9 kmh 29.41 in995.9 mb 0.00 in0.0 mm 0.00 in0.0 mm 0.00 in0.0 mm
07:59 AM 63.3°F17.4°C 53.8°F12.1°C 71% 4.0 mph SE6.4 kmh SE 7.0 mph11.3 kmh 29.41 in995.9 mb 0.00 in0.0 mm 0.00 in0.0 mm 0.00 in0.0 mm
06:09 AM 57.4°F14.1°C 51.9°F11.1°C 82% 3.0 mph ESE4.8 kmh ESE 7.0 mph11.3 kmh 29.41 in995.9 mb 0.00 in0.0 mm 0.00 in0.0 mm 0.00 in0.0 mm
06:04 AM 57.2°F14.0°C 51.8°F11.0°C 82% 2.0 mph ESE3.2 kmh ESE 3.0 mph4.8 kmh 29.41 in995.9 mb 0.00 in0.0 mm 0.00 in0.0 mm 0.00 in0.0 mm
05:59 AM 57.0°F13.9°C 51.6°F10.9°C 82% 4.0 mph SE6.4 kmh SE 8.0 mph12.9 kmh 29.41 in995.9 mb 0.00 in0.0 mm 0.00 in0.0 mm 0.00 in0.0 mm
04:09 AM 59.4°F15.2°C 51.8°F11.0°C 76% 2.0 mph SE3.2 kmh SE 4.0 mph6.4 kmh 29.39 in995.3 mb 0.00 in0.0 mm 0.00 in0.0 mm 0.00 in0.0 mm
04:04 AM 59.2°F15.1°C 51.6°F10.9°C 76% 3.0 mph S4.8 kmh S 4.0 mph6.4 kmh 29.39 in995.3 mb 0.00 in0.0 mm 0.00 in0.0 mm 0.00 in0.0 mm
03:59 AM 59.2°F15.1°C 51.6°F10.9°C 76% 3.0 mph SE4.8 kmh SE 5.0 mph8.0 kmh 29.40 in995.6 mb 0.00 in0.0 mm 0.00 in0.0 mm 0.00 in0.0 mm
02:09 AM 57.9°F14.4°C 49.7°F9.8°C 74% 2.0 mph ESE3.2 kmh ESE 2.0 mph3.2 kmh 29.39 in995.3 mb 0.00 in0.0 mm 0.00 in0.0 mm 0.00 in0.0 mm
02:04 AM 57.9°F14.4°C 49.7°F9.8°C 74% 2.0 mph ESE3.2 kmh ESE 3.0 mph4.8 kmh 29.39 in995.3 mb 0.00 in0.0 mm 0.00 in0.0 mm 0.00 in0.0 mm
01:59 AM 57.9°F14.4°C 49.7°F9.8°C 74% 2.0 mph ESE3.2 kmh ESE 3.0 mph4.8 kmh 29.39 in995.3 mb 0.00 in0.0 mm 0.00 in0.0 mm 0.00 in0.0 mm
12:09 AM 59.4°F15.2°C 49.2°F9.6°C 69% 3.0 mph E4.8 kmh E 4.0 mph6.4 kmh 29.40 in995.6 mb 0.00 in0.0 mm 0.00 in0.0 mm 0.00 in0.0 mm
12:04 AM 59.5°F15.3°C 49.4°F9.7°C 69% 2.0 mph ESE3.2 kmh ESE 3.0 mph4.8 kmh 29.40 in995.6 mb 0.00 in0.0 mm 0.00 in0.0 mm 0.00 in0.0 mm